CheckWX is a tool to help pilots better visualize weather data.  It is not intended as a substitute for an official pre-flight weather briefing.

16:22:56 UTC

EBBL METAR
Kleine Brogel Air Base Airport
Kleine Brogel, Belgium
Current

28 mins ago

EBBL 241555Z AUTO 06003KT 9999 FEW067/// 32/17 Q1017 BLU
Observed
Jun-24 @ 15:55 UTC
Wind
  • 060° at 3 KTS
Visibility
10,000+ meters
Flight Rules
VFR
Cloud Levels
  • Few at 6,700' AGL
Temperature
32°C / 90°F
Dewpoint
17°C / 63°F
Heat Index
33°C / 91°F
Humidity
41%
Altimeter
30.03" Hg
Pressure
1016.92 hPa
Previous

58 mins ago

EBBL 241525Z AUTO VRB02KT 9999 NCD 32/16 Q1017 BLU
Observed
Jun-24 @ 15:25 UTC
Wind
  • Variable at 2 KTS
Visibility
10,000+ meters
Flight Rules
VFR
Cloud Levels
  • Clear skies
Temperature
32°C / 90°F
Dewpoint
16°C / 61°F
Humidity
38%
Altimeter
30.03" Hg
Pressure
1016.92 hPa
Previous

1 hour ago

EBBL 241505Z 11003KT 9999 FEW063 SCT250 33/17 Q1017 BLU FCST CANCEL
Observed
Jun-24 @ 15:05 UTC
Wind
  • 110° at 3 KTS
Visibility
10,000+ meters
Flight Rules
VFR
Cloud Levels
  • Few at 6,300' AGL
  • Scattered at 25,000' AGL
Temperature
33°C / 91°F
Dewpoint
17°C / 63°F
Humidity
38%
Altimeter
30.03" Hg
Pressure
1016.92 hPa